createdAt,value
2019-05-29T00:02:14.186Z,0
2019-05-29T00:07:14.271Z,0
2019-05-29T00:12:18.386Z,0
2019-05-29T00:17:14.673Z,0
2019-05-29T00:22:14.568Z,0
2019-05-29T00:27:15.457Z,0
2019-05-29T00:32:15.155Z,0
2019-05-29T00:37:14.615Z,0
2019-05-29T00:42:14.744Z,0
2019-05-29T00:47:13.694Z,0
2019-05-29T00:52:14.330Z,0
2019-05-29T00:57:15.223Z,0
2019-05-29T01:02:13.864Z,0
2019-05-29T01:07:14.172Z,0
2019-05-29T01:12:13.389Z,0
2019-05-29T01:17:13.710Z,0
2019-05-29T01:22:14.319Z,0
2019-05-29T01:27:15.109Z,0
2019-05-29T01:32:15.237Z,0
2019-05-29T01:37:14.002Z,0
2019-05-29T01:42:13.531Z,0
2019-05-29T01:47:13.986Z,0
2019-05-29T01:52:15.454Z,0
2019-05-29T01:57:13.985Z,0
2019-05-29T02:02:13.496Z,0
2019-05-29T02:07:14.177Z,0
2019-05-29T02:12:14.077Z,0
2019-05-29T02:17:13.533Z,0
2019-05-29T02:22:14.028Z,0
2019-05-29T02:27:13.444Z,0
2019-05-29T02:32:13.949Z,0
2019-05-29T02:37:13.647Z,0
2019-05-29T02:42:14.206Z,0
2019-05-29T02:47:13.698Z,0
2019-05-29T02:52:14.232Z,0
2019-05-29T02:57:13.795Z,0
2019-05-29T03:02:14.299Z,0
2019-05-29T03:07:14.046Z,0
2019-05-29T03:12:14.024Z,0
2019-05-29T03:17:13.608Z,0
2019-05-29T03:22:14.431Z,0
2019-05-29T03:27:14.012Z,0
2019-05-29T03:32:14.787Z,0
2019-05-29T03:37:14.507Z,0
2019-05-29T03:42:14.049Z,0
2019-05-29T03:47:14.256Z,0
2019-05-29T03:52:13.944Z,0
2019-05-29T03:57:14.039Z,0
2019-05-29T04:02:13.859Z,0
2019-05-29T04:07:14.253Z,0
2019-05-29T04:12:18.817Z,0
2019-05-29T04:17:14.422Z,0
2019-05-29T04:22:14.396Z,0
2019-05-29T04:27:14.327Z,0
2019-05-29T04:32:14.038Z,0
2019-05-29T04:37:13.816Z,0
2019-05-29T04:42:14.306Z,0
2019-05-29T04:47:13.942Z,0
2019-05-29T04:52:14.022Z,0
2019-05-29T04:57:14.606Z,0
2019-05-29T05:02:14.173Z,0
2019-05-29T05:07:13.891Z,0
2019-05-29T05:12:14.421Z,0
2019-05-29T05:17:25.746Z,0
2019-05-29T05:22:14.283Z,0
2019-05-29T05:27:13.890Z,0
2019-05-29T05:32:13.913Z,0
2019-05-29T05:37:14.322Z,0
2019-05-29T05:42:13.915Z,0
2019-05-29T05:47:14.385Z,0
2019-05-29T05:52:13.956Z,0
2019-05-29T05:57:14.518Z,0
2019-05-29T06:02:14.082Z,0
2019-05-29T06:07:14.673Z,0
2019-05-29T06:12:14.323Z,0
2019-05-29T06:17:15.223Z,0
2019-05-29T06:22:13.742Z,0
2019-05-29T06:27:14.274Z,0
2019-05-29T06:32:13.786Z,0
2019-05-29T06:37:14.419Z,0
2019-05-29T06:42:13.981Z,0
2019-05-29T06:47:13.728Z,0
2019-05-29T06:52:14.244Z,0
2019-05-29T06:57:13.785Z,0
2019-05-29T07:02:14.336Z,0
2019-05-29T07:07:14.077Z,0
2019-05-29T07:12:13.924Z,0
2019-05-29T07:17:14.493Z,0
2019-05-29T07:22:14.161Z,0
2019-05-29T07:27:13.934Z,0
2019-05-29T07:32:14.376Z,0
2019-05-29T07:37:14.315Z,0
2019-05-29T07:42:13.958Z,0
2019-05-29T07:47:13.919Z,0
2019-05-29T07:52:14.462Z,0
2019-05-29T07:57:14.026Z,0
2019-05-29T08:02:13.931Z,0
2019-05-29T08:07:14.154Z,0
2019-05-29T08:12:14.576Z,0
2019-05-29T08:17:14.802Z,0
2019-05-29T08:22:14.374Z,0
2019-05-29T08:27:13.899Z,0
2019-05-29T08:32:14.567Z,0
2019-05-29T08:37:14.206Z,0
2019-05-29T08:42:23.153Z,0
2019-05-29T08:47:14.191Z,0
2019-05-29T08:52:14.517Z,0
2019-05-29T08:57:14.203Z,0
2019-05-29T09:02:14.818Z,0
2019-05-29T09:07:14.054Z,0
2019-05-29T09:12:14.471Z,0
2019-05-29T09:17:14.587Z,0
2019-05-29T09:22:14.939Z,0
2019-05-29T09:27:15.377Z,0
2019-05-29T09:32:15.343Z,0
2019-05-29T09:37:16.073Z,0.5
2019-05-29T09:42:15.074Z,0.5
2019-05-29T09:47:14.011Z,1.2
2019-05-29T09:52:14.040Z,1.2
2019-05-29T09:57:15.431Z,0.9
2019-05-29T10:02:14.910Z,0.9
2019-05-29T10:07:14.748Z,1.9
2019-05-29T10:12:14.537Z,1.9
2019-05-29T10:17:14.371Z,0
2019-05-29T10:22:14.643Z,0
2019-05-29T10:27:14.284Z,0
2019-05-29T10:32:14.911Z,0
2019-05-29T10:37:17.965Z,0
2019-05-29T10:42:14.283Z,0
2019-05-29T10:47:14.370Z,0
2019-05-29T10:52:17.239Z,0
2019-05-29T10:57:14.770Z,0
2019-05-29T11:02:14.267Z,0
2019-05-29T11:07:15.007Z,0
2019-05-29T11:12:14.652Z,0
2019-05-29T11:17:14.236Z,0.6
2019-05-29T11:22:25.680Z,0.6
2019-05-29T11:27:14.337Z,0.5
2019-05-29T11:32:14.570Z,0.5
2019-05-29T11:37:14.152Z,0
2019-05-29T11:42:26.967Z,0
2019-05-29T11:47:14.614Z,2.3
2019-05-29T11:52:24.061Z,2.3
2019-05-29T11:57:14.465Z,0
2019-05-29T12:02:14.995Z,0
2019-05-29T12:07:14.682Z,0
2019-05-29T12:12:15.070Z,0
2019-05-29T12:17:14.701Z,0
2019-05-29T12:22:14.232Z,0
2019-05-29T12:27:14.860Z,0.5
2019-05-29T12:32:14.476Z,0.5
2019-05-29T12:37:14.338Z,1.7
2019-05-29T12:42:15.053Z,1.7
2019-05-29T12:47:14.600Z,0.3
2019-05-29T12:52:14.278Z,0.3
2019-05-29T12:57:14.910Z,0
2019-05-29T13:02:14.505Z,0
2019-05-29T13:07:15.089Z,0
2019-05-29T13:12:15.109Z,0
2019-05-29T13:17:14.571Z,0
2019-05-29T13:22:15.121Z,0
2019-05-29T13:27:14.849Z,0
2019-05-29T13:32:14.388Z,0
2019-05-29T13:37:15.141Z,0.5
2019-05-29T13:42:14.746Z,0.5
2019-05-29T13:47:14.368Z,0
2019-05-29T13:52:14.906Z,0
2019-05-29T13:57:14.439Z,0
2019-05-29T14:02:15.050Z,0
2019-05-29T14:07:14.677Z,0.2
2019-05-29T14:12:14.325Z,0.2
2019-05-29T14:17:15.132Z,0
2019-05-29T14:22:15.132Z,0
2019-05-29T14:27:14.429Z,0
2019-05-29T14:32:14.942Z,0
2019-05-29T14:37:14.521Z,0
2019-05-29T14:42:15.269Z,0
2019-05-29T14:47:14.805Z,0
2019-05-29T14:52:14.414Z,0
2019-05-29T14:57:25.551Z,0
2019-05-29T15:02:18.924Z,0
2019-05-29T15:07:15.218Z,0
2019-05-29T15:12:14.989Z,0
2019-05-29T15:17:15.489Z,0
2019-05-29T15:22:16.047Z,0
2019-05-29T15:27:16.067Z,0
2019-05-29T15:32:16.550Z,0
2019-05-29T15:37:17.340Z,0
2019-05-29T15:42:15.063Z,0
2019-05-29T15:47:14.974Z,0
2019-05-29T15:52:15.261Z,0
2019-05-29T15:57:15.237Z,0
2019-05-29T16:02:15.738Z,0
2019-05-29T16:07:16.112Z,0
2019-05-29T16:12:14.860Z,0
2019-05-29T16:17:15.279Z,0
2019-05-29T16:22:14.950Z,0
2019-05-29T16:27:14.463Z,0
2019-05-29T16:32:16.085Z,0
2019-05-29T16:37:15.196Z,0
2019-05-29T16:42:15.801Z,0
2019-05-29T16:47:14.826Z,0
2019-05-29T16:52:14.900Z,0
2019-05-29T16:57:15.155Z,0
2019-05-29T17:02:15.647Z,0
2019-05-29T17:07:16.085Z,0
2019-05-29T17:12:14.853Z,0
2019-05-29T17:17:15.672Z,0
2019-05-29T17:22:16.480Z,0
2019-05-29T17:27:15.046Z,0
2019-05-29T17:32:14.831Z,0
2019-05-29T17:37:15.503Z,0
2019-05-29T17:42:15.983Z,0
2019-05-29T17:47:15.466Z,0
2019-05-29T17:52:15.769Z,0
2019-05-29T17:57:16.654Z,0
2019-05-29T18:02:16.053Z,0
2019-05-29T18:07:14.824Z,0
2019-05-29T18:12:15.329Z,0
2019-05-29T18:17:14.690Z,0
2019-05-29T18:22:15.190Z,0
2019-05-29T18:27:14.702Z,0
2019-05-29T18:32:15.241Z,0
2019-05-29T18:37:14.844Z,0
2019-05-29T18:42:15.477Z,0
2019-05-29T18:47:14.936Z,0
2019-05-29T18:52:15.479Z,0
2019-05-29T18:57:16.194Z,0
2019-05-29T19:02:14.910Z,0
2019-05-29T19:07:15.577Z,0
2019-05-29T19:12:15.283Z,0
2019-05-29T19:17:15.437Z,0
2019-05-29T19:22:15.079Z,0
2019-05-29T19:27:30.186Z,0
2019-05-29T19:32:15.036Z,0
2019-05-29T19:37:15.634Z,0
2019-05-29T19:42:15.152Z,0
2019-05-29T19:47:14.708Z,0
2019-05-29T19:52:15.186Z,0
2019-05-29T19:57:14.723Z,0
2019-05-29T20:02:15.302Z,0
2019-05-29T20:07:15.031Z,0
2019-05-29T20:12:15.586Z,0
2019-05-29T20:17:15.023Z,0
2019-05-29T20:22:15.467Z,0
2019-05-29T20:27:15.054Z,0
2019-05-29T20:32:15.513Z,0
2019-05-29T20:37:15.118Z,0
2019-05-29T20:42:14.734Z,0
2019-05-29T20:47:15.207Z,0
2019-05-29T20:52:14.753Z,0
2019-05-29T20:57:15.335Z,0
2019-05-29T21:02:14.894Z,0
2019-05-29T21:07:15.440Z,0
2019-05-29T21:12:15.168Z,0
2019-05-29T21:17:15.501Z,0
2019-05-29T21:22:15.236Z,0
2019-05-29T21:27:14.903Z,0
2019-05-29T21:32:15.497Z,0
2019-05-29T21:37:15.038Z,0
2019-05-29T21:42:15.595Z,0
2019-05-29T21:47:15.164Z,0
2019-05-29T21:52:15.727Z,0
2019-05-29T21:57:15.237Z,0
2019-05-29T22:02:15.547Z,0
2019-05-29T22:07:15.246Z,0
2019-05-29T22:12:14.980Z,0
2019-05-29T22:17:15.690Z,0
2019-05-29T22:22:15.763Z,0
2019-05-29T22:27:15.589Z,0
2019-05-29T22:32:15.583Z,0
2019-05-29T22:37:14.908Z,0
2019-05-29T22:42:15.641Z,0
2019-05-29T22:47:14.918Z,0
2019-05-29T22:52:15.469Z,0
2019-05-29T22:57:15.778Z,0
2019-05-29T23:02:15.715Z,0
2019-05-29T23:07:15.479Z,0
2019-05-29T23:12:15.107Z,0
2019-05-29T23:17:15.372Z,0
2019-05-29T23:22:14.931Z,0
2019-05-29T23:27:15.325Z,0
2019-05-29T23:32:15.819Z,0
2019-05-29T23:37:15.563Z,0
2019-05-29T23:42:15.118Z,0
2019-05-29T23:47:15.627Z,0
2019-05-29T23:52:15.217Z,0
2019-05-29T23:57:15.770Z,0
